Time;durP1;ratioP1;P1;durP2;ratioP2;P2;SDS_P1;SDS_P2;PMS_P1;PMS_P2;Temp;Humidity;BMP_temperature;BMP_pressure;BME280_temperature;BME280_humidity;BME280_pressure;Samples;Min_cycle;Max_cycle;Signal;HPM_P1;HPM_P2
2024/01/31 00:00:08;;;;;;;21.00;12.60;;;;;;;-0.92;72.75;101023.67;107108;1257;68695;-39
2024/01/31 00:02:36;;;;;;;16.70;10.90;;;;;;;-0.84;72.70;101037.05;107160;1257;72705;-39
2024/01/31 00:05:04;;;;;;;17.80;11.40;;;;;;;-0.79;72.52;101034.31;107227;1257;60421;-39
2024/01/31 00:07:32;;;;;;;17.20;11.60;;;;;;;-0.80;72.87;101030.89;107155;1257;60306;-39
2024/01/31 00:10:00;;;;;;;19.70;12.50;;;;;;;-0.82;72.84;101029.30;107046;1257;73815;-39
2024/01/31 00:12:28;;;;;;;18.70;12.50;;;;;;;-0.90;72.89;101015.51;107028;1257;67464;-39
2024/01/31 00:14:55;;;;;;;19.70;12.40;;;;;;;-0.87;72.93;101024.06;107055;1257;71474;-39
2024/01/31 00:17:23;;;;;;;18.20;11.50;;;;;;;-0.91;72.95;101021.94;107053;1260;60496;-39
2024/01/31 00:19:50;;;;;;;19.00;11.60;;;;;;;-0.95;73.11;101019.42;106964;1258;60373;-39
2024/01/31 00:22:18;;;;;;;20.20;12.10;;;;;;;-0.92;72.82;101007.06;107058;1259;73920;-39
2024/01/31 00:24:46;;;;;;;18.00;11.70;;;;;;;-0.85;72.68;101006.81;107063;1259;68422;-39
2024/01/31 00:27:13;;;;;;;17.80;11.70;;;;;;;-0.86;72.67;101004.44;107091;1260;72646;-39
2024/01/31 00:29:41;;;;;;;19.50;12.30;;;;;;;-0.89;72.78;101009.90;107036;1259;60343;-39
2024/01/31 00:32:08;;;;;;;18.10;11.70;;;;;;;-0.93;72.66;101006.20;107041;1260;60311;-39
2024/01/31 00:34:36;;;;;;;17.60;12.00;;;;;;;-1.01;72.76;100999.27;107081;1259;73879;-39
2024/01/31 00:37:04;;;;;;;19.40;11.70;;;;;;;-1.06;73.04;101004.82;107103;1259;67150;-39
2024/01/31 00:39:32;;;;;;;18.80;12.40;;;;;;;-1.10;73.13;101003.42;107054;1259;72670;-39
2024/01/31 00:42:00;;;;;;;18.90;12.10;;;;;;;-1.06;73.16;101004.30;107058;1259;60582;-39
2024/01/31 00:44:28;;;;;;;18.60;11.90;;;;;;;-0.99;72.91;101001.67;107095;1260;60056;-39
2024/01/31 00:46:55;;;;;;;19.60;12.30;;;;;;;-0.99;72.97;100996.27;107011;1260;72737;-39
2024/01/31 00:49:23;;;;;;;19.30;11.90;;;;;;;-1.03;72.89;100991.58;107044;1260;68353;-39
2024/01/31 00:51:52;;;;;;;21.40;12.80;;;;;;;-1.06;73.15;100993.64;107066;1260;71444;-39
2024/01/31 00:54:21;;;;;;;19.70;12.70;;;;;;;-1.07;73.29;100999.33;107143;1259;60424;-39
2024/01/31 00:56:48;;;;;;;18.50;12.90;;;;;;;-1.05;73.32;101001.82;107053;1258;60257;-39
2024/01/31 00:59:16;;;;;;;22.50;13.20;;;;;;;-1.02;73.31;101003.30;107158;1259;72566;-39
2024/01/31 01:01:43;;;;;;;21.10;12.70;;;;;;;-1.01;73.09;101002.09;106343;1260;1002886;-39
2024/01/31 01:04:11;;;;;;;19.60;12.20;;;;;;;-0.98;72.63;100998.83;107012;1258;72650;-39
2024/01/31 01:06:40;;;;;;;18.30;12.20;;;;;;;-0.95;72.38;100995.05;107023;1260;60552;-38
2024/01/31 01:09:08;;;;;;;20.40;13.00;;;;;;;-0.97;72.54;100997.35;107072;1257;60728;-38
2024/01/31 01:11:36;;;;;;;20.80;13.50;;;;;;;-1.02;72.80;100990.89;107111;1257;72904;-39
2024/01/31 01:14:03;;;;;;;21.20;13.10;;;;;;;-1.07;72.70;100989.05;107178;1257;68498;-39
2024/01/31 01:16:31;;;;;;;20.70;13.30;;;;;;;-1.12;72.78;100992.27;107095;1257;72705;-38
2024/01/31 01:18:58;;;;;;;19.70;13.20;;;;;;;-1.17;72.85;100984.53;107079;1263;60489;-38
2024/01/31 01:21:26;;;;;;;20.50;13.30;;;;;;;-1.24;72.94;100986.54;107131;1257;60329;-38
2024/01/31 01:23:54;;;;;;;17.80;11.80;;;;;;;-1.22;73.01;100984.39;107168;1257;73788;-38
2024/01/31 01:26:22;;;;;;;19.80;12.60;;;;;;;-1.16;72.88;100983.21;107069;1262;67462;-39
2024/01/31 01:28:49;;;;;;;22.30;12.60;;;;;;;-1.14;73.27;100977.17;107169;1261;71612;-39
2024/01/31 01:31:18;;;;;;;18.70;12.10;;;;;;;-1.14;73.25;100977.23;107119;1258;60300;-38
2024/01/31 01:33:46;;;;;;;20.90;12.60;;;;;;;-1.13;73.32;100971.08;107281;1257;60521;-39
2024/01/31 01:36:14;;;;;;;21.40;12.90;;;;;;;-1.12;73.25;100960.02;107241;1257;73844;-39
2024/01/31 01:38:42;;;;;;;20.70;12.50;;;;;;;-1.11;73.22;100956.15;107091;1258;70585;-38
2024/01/31 01:41:09;;;;;;;20.50;13.30;;;;;;;-1.13;73.02;100955.11;106443;1258;1003712;-39
2024/01/31 01:43:37;;;;;;;20.80;12.80;;;;;;;-1.13;73.15;100959.84;107209;1257;59708;-39
2024/01/31 01:46:10;;;;;;;19.80;12.90;;;;;;;-1.03;73.13;100962.34;107237;1257;60954;-39
2024/01/31 01:48:38;;;;;;;17.90;11.70;;;;;;;-0.89;72.64;100961.11;107102;1259;72642;-38
2024/01/31 01:51:06;;;;;;;19.60;12.20;;;;;;;-0.82;72.64;100956.20;107142;1260;68339;-39
2024/01/31 01:53:36;;;;;;;19.70;13.10;;;;;;;-0.80;72.29;100951.91;107175;1257;72622;-38
2024/01/31 01:56:04;;;;;;;18.90;12.70;;;;;;;-0.85;72.36;100943.80;107205;1257;60520;-39
2024/01/31 01:58:32;;;;;;;20.30;13.00;;;;;;;-0.76;72.15;100949.58;107145;1258;60298;-38
2024/01/31 02:01:00;;;;;;;20.80;13.50;;;;;;;-0.75;72.10;100950.60;107181;1261;72923;-39
2024/01/31 02:03:29;;;;;;;20.50;13.50;;;;;;;-0.75;72.22;100942.02;107068;1257;67449;-39
2024/01/31 02:05:58;;;;;;;19.80;12.60;;;;;;;-0.76;71.79;100941.59;107117;1257;72671;-40
2024/01/31 02:08:26;;;;;;;19.40;13.60;;;;;;;-0.78;71.72;100939.55;107197;1257;60424;-40
2024/01/31 02:10:54;;;;;;;20.90;12.90;;;;;;;-0.83;71.70;100931.91;107081;1257;60032;-39
2024/01/31 02:13:22;;;;;;;19.90;12.10;;;;;;;-0.82;71.38;100931.91;107088;1258;73881;-40
2024/01/31 02:15:57;;;;;;;16.40;11.80;;;;;;;-0.77;71.16;100932.09;107138;1257;67085;-39
2024/01/31 02:18:26;;;;;;;18.80;11.80;;;;;;;-0.78;71.33;100930.38;107219;1257;72687;-39
2024/01/31 02:20:54;;;;;;;19.10;12.60;;;;;;;-0.81;71.37;100931.23;107105;1258;123127;-40
2024/01/31 02:26:10;;;;;;;19.00;12.40;;;;;;;-0.86;71.43;100927.66;104375;1289;600800;-38
2024/01/31 02:28:38;;;;;;;20.00;12.60;;;;;;;-0.88;71.47;100925.02;106676;1263;59301;-39
2024/01/31 02:31:05;;;;;;;20.10;13.00;;;;;;;-0.93;71.65;100922.88;106678;1269;59208;-39
2024/01/31 02:33:33;;;;;;;19.10;12.70;;;;;;;-0.95;71.70;100928.64;106688;1264;72327;-40
2024/01/31 02:36:01;;;;;;;19.30;12.30;;;;;;;-0.98;71.77;100931.11;105970;1264;1003275;-39
2024/01/31 02:38:28;;;;;;;21.50;12.80;;;;;;;-0.93;71.78;100923.89;106742;1264;71378;-39
2024/01/31 02:40:55;;;;;;;19.90;11.50;;;;;;;-0.84;71.55;100922.78;106698;1264;242298;-40
2024/01/31 02:43:23;;;;;;;19.30;12.90;;;;;;;-0.83;71.51;100921.46;106873;1262;59180;-40
2024/01/31 02:45:50;;;;;;;17.80;12.00;;;;;;;-0.84;71.60;100921.03;106860;1263;71081;-40
2024/01/31 02:48:18;;;;;;;20.00;12.50;;;;;;;-0.84;71.84;100920.45;106895;1264;67233;-40
2024/01/31 02:50:45;;;;;;;20.70;12.10;;;;;;;-0.87;71.69;100925.51;106867;1266;72566;-40
2024/01/31 02:53:13;;;;;;;19.30;12.50;;;;;;;-0.88;71.75;100929.38;106856;1263;59519;-40
2024/01/31 02:55:40;;;;;;;17.70;12.00;;;;;;;-0.87;72.13;100926.20;106859;1264;59984;-39
2024/01/31 02:58:08;;;;;;;18.60;12.10;;;;;;;-0.84;72.22;100924.55;106877;1263;71784;-39
2024/01/31 03:00:36;;;;;;;19.10;11.60;;;;;;;-0.80;71.99;100923.33;106866;1266;67431;-39
2024/01/31 03:03:04;;;;;;;18.20;11.70;;;;;;;-0.74;71.85;100923.51;106863;1262;72636;-39
2024/01/31 03:05:31;;;;;;;16.90;10.60;;;;;;;-0.67;71.62;100923.02;106894;1264;59660;-40
2024/01/31 03:07:59;;;;;;;18.70;11.50;;;;;;;-0.72;71.69;100916.55;106893;1262;59342;-39
2024/01/31 03:10:26;;;;;;;17.30;12.00;;;;;;;-0.71;71.74;100923.39;106878;1266;73118;-39
2024/01/31 03:12:54;;;;;;;18.70;12.10;;;;;;;-0.71;71.89;100925.02;106869;1264;68681;-39
2024/01/31 03:15:21;;;;;;;17.30;11.70;;;;;;;-0.69;71.98;100924.26;106870;1263;72432;-39
2024/01/31 03:17:49;;;;;;;19.40;12.10;;;;;;;-0.70;71.82;100918.66;106733;1262;59615;-39
2024/01/31 03:20:16;;;;;;;21.70;13.40;;;;;;;-0.73;71.79;100910.90;106759;1264;60008;-39
2024/01/31 03:22:44;;;;;;;21.20;13.10;;;;;;;-0.77;71.81;100907.05;107386;1254;71807;-39
2024/01/31 03:25:12;;;;;;;16.60;11.60;;;;;;;-0.75;71.73;100908.15;107380;1254;68530;-39
2024/01/31 03:27:39;;;;;;;20.00;12.10;;;;;;;-0.67;71.75;100911.08;107378;1254;72737;-40
2024/01/31 03:30:08;;;;;;;17.20;11.40;;;;;;;-0.66;71.74;100912.37;107336;1257;59688;-40
2024/01/31 03:32:37;;;;;;;17.30;11.90;;;;;;;-0.69;71.79;100909.25;107392;1254;60541;-40
2024/01/31 03:35:05;;;;;;;18.60;11.80;;;;;;;-0.73;71.88;100907.06;107313;1254;73071;-39
2024/01/31 03:37:32;;;;;;;17.70;11.80;;;;;;;-0.78;72.09;100909.83;107323;1257;68307;-39
2024/01/31 03:40:00;;;;;;;21.40;13.00;;;;;;;-0.83;72.12;100909.27;107323;1258;72690;-40
2024/01/31 03:42:28;;;;;;;20.40;12.50;;;;;;;-0.87;72.49;100914.48;107307;1260;59730;-40
2024/01/31 03:44:57;;;;;;;19.50;12.50;;;;;;;-0.83;72.32;100916.99;107279;1256;59498;-40
2024/01/31 03:47:24;;;;;;;19.50;12.80;;;;;;;-0.76;72.20;100908.77;107292;1255;73050;-39
2024/01/31 03:49:53;;;;;;;25.00;13.30;;;;;;;-0.73;72.20;100911.54;107255;1257;68371;-40
2024/01/31 03:52:24;;;;;;;18.20;12.50;;;;;;;-0.75;72.32;100905.11;107266;1260;72517;-39
2024/01/31 03:54:53;;;;;;;21.00;12.70;;;;;;;-0.77;72.16;100904.55;107293;1257;59361;-39
2024/01/31 03:57:21;;;;;;;20.30;12.70;;;;;;;-0.82;72.15;100899.65;107372;1255;60199;-39
2024/01/31 03:59:49;;;;;;;23.60;13.60;;;;;;;-0.88;72.27;100896.85;107335;1257;73053;-39
2024/01/31 04:02:16;;;;;;;23.70;13.60;;;;;;;-0.93;72.23;100895.41;107345;1260;68333;-39
2024/01/31 04:04:44;;;;;;;20.10;11.70;;;;;;;-0.92;72.38;100892.77;107297;1260;72632;-39
2024/01/31 04:07:12;;;;;;;21.60;12.90;;;;;;;-0.88;72.20;100892.81;107307;1257;59621;-40
2024/01/31 04:09:39;;;;;;;18.80;12.50;;;;;;;-0.89;72.28;100889.92;107298;1257;59273;-39
2024/01/31 04:12:07;;;;;;;18.90;11.70;;;;;;;-0.92;72.18;100889.35;107323;1257;71768;-39
2024/01/31 04:14:34;;;;;;;20.70;13.00;;;;;;;-0.94;72.16;100885.98;107320;1255;68727;-39
2024/01/31 04:17:02;;;;;;;20.20;11.90;;;;;;;-0.96;72.36;100887.16;107301;1256;71459;-39
2024/01/31 04:19:29;;;;;;;20.00;12.80;;;;;;;-0.98;72.30;100881.91;107333;1257;59567;-39
2024/01/31 04:21:57;;;;;;;18.50;11.70;;;;;;;-1.04;72.50;100884.19;107373;1257;59993;-40
2024/01/31 04:24:25;;;;;;;18.70;11.90;;;;;;;-1.01;72.35;100879.66;107323;1256;72981;-40
2024/01/31 04:26:52;;;;;;;18.60;12.30;;;;;;;-0.94;72.03;100877.70;107260;1257;67420;-39
2024/01/31 04:29:20;;;;;;;19.50;11.40;;;;;;;-0.92;72.09;100877.70;107244;1257;72746;-39
2024/01/31 04:31:53;;;;;;;20.90;12.20;;;;;;;-0.94;72.10;100878.58;107254;1257;59733;-39
2024/01/31 04:34:21;;;;;;;21.40;13.10;;;;;;;-0.98;72.11;100878.36;107237;1257;60199;-39
2024/01/31 04:36:49;;;;;;;19.50;12.90;;;;;;;-1.03;72.20;100872.02;107299;1257;71743;-39
2024/01/31 04:39:16;;;;;;;20.20;12.60;;;;;;;-1.07;72.18;100878.66;106568;1256;1003357;-39
2024/01/31 04:41:46;;;;;;;19.70;12.20;;;;;;;-1.09;72.24;100873.77;107316;1257;72672;-39
2024/01/31 04:44:14;;;;;;;21.10;12.60;;;;;;;-1.12;72.39;100877.85;106549;1257;1003506;-39
2024/01/31 04:46:42;;;;;;;18.20;11.70;;;;;;;-1.07;72.19;100874.08;107254;1256;59751;-39
2024/01/31 04:49:10;;;;;;;19.40;11.50;;;;;;;-0.98;72.04;100873.20;107452;1257;72988;-40
2024/01/31 04:51:41;;;;;;;19.50;12.80;;;;;;;-0.96;71.74;100872.10;107325;1257;68424;-40
2024/01/31 04:54:09;;;;;;;20.40;12.00;;;;;;;-0.96;72.10;100868.41;107240;1257;72422;-39
2024/01/31 04:56:36;;;;;;;19.00;12.10;;;;;;;-0.97;71.84;100869.48;107201;1263;59697;-39
2024/01/31 04:59:04;;;;;;;20.90;12.60;;;;;;;-0.99;71.79;100872.55;106574;1258;1003020;-39
2024/01/31 05:01:31;;;;;;;18.60;12.10;;;;;;;-1.00;71.84;100875.50;107301;1257;71788;-39
2024/01/31 05:03:59;;;;;;;19.30;12.30;;;;;;;-1.03;72.06;100872.76;106607;1260;1003085;-39
2024/01/31 05:06:27;;;;;;;20.30;12.70;;;;;;;-1.06;72.07;100870.90;107289;1257;72503;-39
2024/01/31 05:08:54;;;;;;;23.20;12.40;;;;;;;-1.04;72.27;100873.15;107292;1258;61601;-39
2024/01/31 05:11:22;;;;;;;19.40;12.30;;;;;;;-0.96;72.23;100873.85;107295;1256;59631;-39
2024/01/31 05:13:49;;;;;;;20.70;12.30;;;;;;;-0.88;72.00;100872.36;107302;1257;73036;-39
2024/01/31 05:16:18;;;;;;;20.10;12.70;;;;;;;-0.86;72.27;100866.63;107337;1260;68372;-39
2024/01/31 05:18:46;;;;;;;20.30;12.40;;;;;;;-0.83;72.36;100864.45;107298;1257;71374;-39
2024/01/31 05:21:14;;;;;;;22.80;12.70;;;;;;;-0.82;72.03;100855.39;107336;1257;59582;-39
2024/01/31 05:23:41;;;;;;;19.90;13.40;;;;;;;-0.84;72.04;100852.19;107343;1257;59212;-39
2024/01/31 05:26:09;;;;;;;20.80;12.60;;;;;;;-0.84;71.97;100852.71;107345;1255;71840;-39
2024/01/31 05:28:37;;;;;;;21.80;12.70;;;;;;;-0.87;72.25;100851.65;107391;1257;67073;-39
2024/01/31 05:31:04;;;;;;;21.70;13.70;;;;;;;-0.88;72.19;100852.23;107345;1258;71358;-39
2024/01/31 05:33:32;;;;;;;20.90;13.30;;;;;;;-0.84;71.91;100848.13;107326;1256;59568;-39
2024/01/31 05:36:01;;;;;;;21.10;13.60;;;;;;;-0.77;71.70;100844.86;107347;1257;59166;-39
2024/01/31 05:38:29;;;;;;;20.10;13.30;;;;;;;-0.76;71.76;100836.14;107304;1256;73006;-39
2024/01/31 05:40:56;;;;;;;23.10;13.10;;;;;;;-0.76;71.94;100835.59;107247;1257;67874;-39
2024/01/31 05:43:24;;;;;;;20.70;13.10;;;;;;;-0.77;71.93;100834.58;107224;1256;72477;-39
2024/01/31 05:45:51;;;;;;;20.10;12.90;;;;;;;-0.77;71.99;100835.38;107272;1256;59580;-39
2024/01/31 05:48:19;;;;;;;17.00;12.10;;;;;;;-0.78;71.70;100835.85;107288;1257;59929;-39
2024/01/31 05:50:47;;;;;;;20.20;13.20;;;;;;;-0.85;71.87;100830.02;107313;1257;72871;-39
2024/01/31 05:53:14;;;;;;;19.10;12.40;;;;;;;-0.89;71.91;100829.55;107305;1257;67899;-39
2024/01/31 05:55:42;;;;;;;21.10;13.60;;;;;;;-0.86;72.10;100826.33;107315;1260;72687;-40
2024/01/31 05:58:10;;;;;;;18.90;12.10;;;;;;;-0.81;71.94;100829.46;107271;1257;60056;-39
2024/01/31 06:00:37;;;;;;;19.30;12.90;;;;;;;-0.81;71.86;100832.52;106606;1257;1003006;-39
2024/01/31 06:03:05;;;;;;;23.90;13.70;;;;;;;-0.82;71.97;100834.14;107274;1258;72952;-39
2024/01/31 06:05:32;;;;;;;20.40;12.90;;;;;;;-0.82;72.05;100835.21;107281;1257;67140;-39
2024/01/31 06:08:00;;;;;;;20.50;13.40;;;;;;;-0.81;72.06;100834.85;107299;1257;72758;-39
2024/01/31 06:10:32;;;;;;;21.70;13.20;;;;;;;-0.80;72.00;100841.68;107359;1257;59617;-39
2024/01/31 06:13:00;;;;;;;18.00;12.60;;;;;;;-0.81;71.86;100846.66;107304;1258;60184;-39
2024/01/31 06:15:27;;;;;;;21.30;13.60;;;;;;;-0.80;72.01;100850.36;107316;1256;73025;-39
2024/01/31 06:17:55;;;;;;;22.50;13.90;;;;;;;-0.75;71.94;100850.05;107313;1256;68327;-39
2024/01/31 06:20:23;;;;;;;21.00;13.00;;;;;;;-0.62;71.78;100853.46;107347;1258;71110;-39
2024/01/31 06:22:50;;;;;;;21.90;13.70;;;;;;;-0.51;71.17;100853.20;107329;1257;59733;-39
2024/01/31 06:25:18;;;;;;;19.80;12.80;;;;;;;-0.47;71.34;100848.56;107338;1257;59618;-39
2024/01/31 06:27:46;;;;;;;20.10;13.10;;;;;;;-0.46;71.22;100842.08;107314;1260;71466;-39
2024/01/31 06:30:19;;;;;;;21.10;13.60;;;;;;;-0.44;71.13;100848.55;107309;1258;68364;-40
2024/01/31 06:32:47;;;;;;;19.80;13.20;;;;;;;-0.42;71.11;100851.27;107300;1260;73117;-39
2024/01/31 06:35:15;;;;;;;21.60;13.20;;;;;;;-0.40;71.03;100857.75;107276;1258;60512;-39
2024/01/31 06:37:43;;;;;;;22.70;13.80;;;;;;;-0.39;70.87;100860.38;107290;1258;60293;-40
2024/01/31 06:40:11;;;;;;;21.30;13.60;;;;;;;-0.38;70.80;100857.55;107300;1257;73852;-39
2024/01/31 06:42:39;;;;;;;22.60;13.10;;;;;;;-0.39;70.74;100856.43;107299;1260;67085;-39
2024/01/31 06:45:06;;;;;;;20.80;12.40;;;;;;;-0.33;70.46;100855.36;107285;1257;72641;-39
2024/01/31 06:47:34;;;;;;;20.20;12.70;;;;;;;-0.27;70.36;100851.80;107266;1257;60251;-39
2024/01/31 06:50:02;;;;;;;21.40;12.60;;;;;;;-0.26;70.43;100852.03;107292;1257;60537;-39
2024/01/31 06:52:29;;;;;;;18.90;12.50;;;;;;;-0.27;70.54;100849.62;107329;1257;73764;-40
2024/01/31 06:54:57;;;;;;;20.90;12.80;;;;;;;-0.28;70.80;100849.49;107289;1258;68412;-39
2024/01/31 06:57:25;;;;;;;21.80;14.30;;;;;;;-0.28;70.67;100847.36;107282;1257;72732;-39
2024/01/31 06:59:52;;;;;;;20.40;13.10;;;;;;;-0.27;70.93;100843.11;107298;1257;60296;-39
2024/01/31 07:02:20;;;;;;;24.80;13.80;;;;;;;-0.26;70.88;100843.61;106607;1257;1003588;-39
2024/01/31 07:04:47;;;;;;;21.60;13.40;;;;;;;-0.27;71.00;100841.63;107253;1257;72611;-39
2024/01/31 07:07:15;;;;;;;22.10;12.70;;;;;;;-0.21;70.79;100843.65;107221;1257;69063;-39
2024/01/31 07:09:43;;;;;;;20.80;12.80;;;;;;;-0.11;70.61;100843.80;107231;1257;72437;-39
2024/01/31 07:12:10;;;;;;;29.70;13.30;;;;;;;-0.09;70.67;100839.83;107231;1258;60507;-39
2024/01/31 07:14:41;;;;;;;23.00;13.50;;;;;;;-0.07;70.67;100834.67;107293;1255;60511;-39
2024/01/31 07:17:09;;;;;;;20.00;12.80;;;;;;;-0.03;70.52;100830.13;107356;1255;73938;-39
2024/01/31 07:19:43;;;;;;;20.80;13.40;;;;;;;0.00;70.35;100829.84;107328;1257;67080;-39
2024/01/31 07:22:11;;;;;;;24.90;14.10;;;;;;;0.00;70.12;100825.35;107299;1258;72295;-39
2024/01/31 07:24:38;;;;;;;20.40;12.50;;;;;;;-0.01;69.95;100824.66;107283;1255;60293;-39
2024/01/31 07:27:06;;;;;;;22.60;14.20;;;;;;;0.04;69.85;100829.59;107329;1256;60405;-39
2024/01/31 07:29:33;;;;;;;21.60;13.70;;;;;;;0.13;69.70;100828.45;107291;1257;73730;-39
2024/01/31 07:32:01;;;;;;;19.60;12.10;;;;;;;0.18;69.70;100824.02;107321;1256;67459;-39
2024/01/31 07:34:29;;;;;;;23.00;13.40;;;;;;;0.19;69.74;100819.70;107349;1257;72725;-38
2024/01/31 07:36:57;;;;;;;21.50;13.00;;;;;;;0.23;69.43;100820.54;107353;1260;60328;-38
2024/01/31 07:39:24;;;;;;;22.50;14.00;;;;;;;0.25;69.22;100817.86;107334;1255;60153;-38
2024/01/31 07:41:52;;;;;;;20.00;13.80;;;;;;;0.27;69.06;100815.59;107278;1260;72983;-38
2024/01/31 07:44:20;;;;;;;21.50;13.60;;;;;;;0.30;68.99;100822.13;106597;1260;1003074;-38
2024/01/31 07:46:47;;;;;;;19.40;13.20;;;;;;;0.33;68.40;100819.49;106571;1257;1003055;-38
2024/01/31 07:49:15;;;;;;;20.90;13.00;;;;;;;0.41;68.11;100823.43;107423;1255;60923;-38
2024/01/31 07:51:46;;;;;;;22.60;13.70;;;;;;;0.50;67.59;100825.15;107329;1257;60287;-38
2024/01/31 07:54:15;;;;;;;19.70;12.10;;;;;;;0.54;67.41;100825.42;107299;1257;73827;-38
2024/01/31 07:56:43;;;;;;;20.90;13.50;;;;;;;0.56;67.18;100829.14;107322;1260;68385;-38
2024/01/31 07:59:10;;;;;;;20.30;13.40;;;;;;;0.59;67.07;100829.95;107276;1256;70426;-39
2024/01/31 08:01:38;;;;;;;21.90;13.30;;;;;;;0.62;66.96;100831.26;107308;1255;60426;-38
2024/01/31 08:04:06;;;;;;;21.80;13.10;;;;;;;0.65;66.95;100829.98;107300;1255;60076;-38
2024/01/31 08:06:35;;;;;;;25.20;13.60;;;;;;;0.68;66.79;100824.77;107290;1257;73802;-38
2024/01/31 08:09:03;;;;;;;20.80;13.40;;;;;;;0.74;66.87;100824.34;107280;1257;67692;-38
2024/01/31 08:11:45;;;;;;;21.30;12.80;;;;;;;0.82;66.46;100823.14;107173;1258;72428;-38
2024/01/31 08:14:12;;;;;;;23.80;13.10;;;;;;;0.92;66.17;100820.20;107220;1255;60611;-38
2024/01/31 08:16:40;;;;;;;23.10;13.60;;;;;;;1.11;65.84;100816.92;107242;1257;59232;-38
2024/01/31 08:19:07;;;;;;;22.10;14.40;;;;;;;1.24;65.20;100817.67;107249;1257;73938;-38
2024/01/31 08:21:35;;;;;;;24.90;14.00;;;;;;;1.29;63.84;100817.91;107289;1257;68142;-39
2024/01/31 08:24:03;;;;;;;22.20;14.10;;;;;;;1.29;63.96;100817.11;107227;1257;71456;-38
2024/01/31 08:26:31;;;;;;;22.70;14.30;;;;;;;1.33;64.21;100811.45;107229;1258;60472;-38
2024/01/31 08:28:59;;;;;;;22.70;14.00;;;;;;;1.42;64.09;100815.37;107247;1256;59457;-38
2024/01/31 08:31:42;;;;;;;22.80;13.60;;;;;;;1.52;63.69;100812.41;107220;1258;72573;-39
2024/01/31 08:34:10;;;;;;;23.00;13.50;;;;;;;1.60;63.30;100813.27;107220;1260;69026;-39
2024/01/31 08:36:38;;;;;;;22.60;13.80;;;;;;;1.69;63.24;100811.36;106438;1260;1002881;-38
2024/01/31 08:39:08;;;;;;;24.30;14.40;;;;;;;1.81;62.61;100814.92;107215;1258;60482;-39
2024/01/31 08:41:36;;;;;;;20.10;13.00;;;;;;;1.89;62.42;100808.50;107294;1255;60328;-38
2024/01/31 08:44:04;;;;;;;21.10;14.00;;;;;;;1.93;62.42;100806.05;107298;1260;73762;-39
2024/01/31 08:46:32;;;;;;;25.90;14.90;;;;;;;1.94;62.27;100808.34;107264;1260;68495;-39
2024/01/31 08:49:09;;;;;;;20.40;13.60;;;;;;;1.96;62.14;100803.59;107298;1260;70849;-38
2024/01/31 08:51:38;;;;;;;24.20;13.60;;;;;;;1.99;61.83;100801.88;107268;1258;60389;-38
2024/01/31 08:54:06;;;;;;;25.00;14.40;;;;;;;2.04;61.88;100799.27;107298;1255;60379;-38
2024/01/31 08:56:34;;;;;;;22.90;13.80;;;;;;;2.12;61.77;100793.96;107285;1258;73850;-40
2024/01/31 08:59:01;;;;;;;21.70;14.00;;;;;;;2.26;61.50;100790.96;107319;1258;68988;-39
2024/01/31 09:01:29;;;;;;;22.10;13.90;;;;;;;2.41;61.17;100777.02;107208;1260;71337;-39
2024/01/31 09:03:57;;;;;;;21.90;14.20;;;;;;;2.54;60.60;100774.84;107215;1260;62047;-39
2024/01/31 09:06:25;;;;;;;24.60;13.50;;;;;;;2.62;60.13;100770.07;107268;1257;60543;-39
2024/01/31 09:08:52;;;;;;;19.20;12.40;;;;;;;2.68;59.91;100767.85;107244;1260;73968;-38
2024/01/31 09:11:20;;;;;;;18.70;13.30;;;;;;;2.74;59.65;100769.75;107188;1260;68519;-39
2024/01/31 09:13:49;;;;;;;26.30;14.10;;;;;;;2.81;59.44;100765.61;107229;1257;71677;-39
2024/01/31 09:16:17;;;;;;;21.50;14.00;;;;;;;2.91;59.15;100758.71;107320;1256;60434;-38
2024/01/31 09:18:45;;;;;;;20.00;13.80;;;;;;;3.03;59.39;100755.81;107278;1260;59573;-39
2024/01/31 09:21:27;;;;;;;22.10;13.80;;;;;;;3.17;58.68;100751.41;107287;1258;73781;-38
2024/01/31 09:23:54;;;;;;;26.40;13.70;;;;;;;3.25;58.07;100751.46;107307;1260;68509;-39
2024/01/31 09:26:22;;;;;;;20.50;13.40;;;;;;;3.24;58.42;100748.96;107275;1258;71010;-39
2024/01/31 09:28:50;;;;;;;23.80;14.80;;;;;;;3.24;58.07;100744.02;107294;1257;60312;-39
2024/01/31 09:31:25;;;;;;;27.20;13.40;;;;;;;3.22;58.21;100741.31;107320;1260;60063;-39
2024/01/31 09:33:53;;;;;;;23.90;13.70;;;;;;;3.23;58.22;100744.52;107326;1261;73957;-39
2024/01/31 09:36:22;;;;;;;28.30;14.40;;;;;;;3.28;58.61;100740.84;107411;1260;70684;-40
2024/01/31 09:38:50;;;;;;;23.20;14.80;;;;;;;3.39;58.47;100740.40;107298;1258;72757;-39
2024/01/31 09:41:18;;;;;;;24.30;14.30;;;;;;;3.50;57.77;100732.39;107257;1261;60375;-40
2024/01/31 09:43:45;;;;;;;26.90;14.00;;;;;;;3.57;57.52;100724.46;107311;1260;60431;-39
2024/01/31 09:46:15;;;;;;;21.80;13.70;;;;;;;3.60;57.31;100720.84;107275;1258;73882;-39
2024/01/31 09:48:43;;;;;;;21.10;13.40;;;;;;;3.61;57.33;100713.17;107306;1257;68539;-40
2024/01/31 09:51:11;;;;;;;21.80;12.70;;;;;;;3.63;57.75;100711.48;107257;1258;70743;-40
2024/01/31 09:53:38;;;;;;;22.10;13.90;;;;;;;3.66;58.00;100706.31;107175;1263;60559;-39
2024/01/31 09:56:07;;;;;;;24.50;15.00;;;;;;;3.67;57.62;100704.27;107183;1262;60297;-40
2024/01/31 09:58:36;;;;;;;24.20;15.50;;;;;;;3.65;58.02;100702.02;107351;1257;73991;-40
2024/01/31 10:01:04;;;;;;;25.60;14.40;;;;;;;3.64;58.25;100697.64;107306;1258;67768;-40
2024/01/31 10:03:43;;;;;;;24.20;14.70;;;;;;;3.62;58.05;100694.02;107289;1257;71445;-40
2024/01/31 10:06:11;;;;;;;26.60;14.10;;;;;;;3.65;58.44;100692.48;107297;1257;60487;-40
2024/01/31 10:08:39;;;;;;;28.00;14.00;;;;;;;3.71;58.57;100687.17;107260;1256;60335;-40
2024/01/31 10:11:08;;;;;;;23.10;13.30;;;;;;;3.76;58.61;100683.27;107240;1263;73898;-40
2024/01/31 10:13:36;;;;;;;23.90;14.50;;;;;;;3.79;58.10;100680.77;107250;1261;67352;-40
2024/01/31 10:16:04;;;;;;;19.20;13.60;;;;;;;3.80;58.15;100677.29;107240;1261;70990;-40
2024/01/31 10:18:32;;;;;;;24.80;13.40;;;;;;;3.78;58.51;100671.50;107283;1257;60462;-40
2024/01/31 10:21:01;;;;;;;23.00;13.80;;;;;;;3.79;59.36;100669.77;107243;1261;60328;-40
2024/01/31 10:23:29;;;;;;;24.30;13.00;;;;;;;3.81;59.21;100664.45;107228;1260;73971;-40
2024/01/31 10:25:58;;;;;;;29.40;15.00;;;;;;;3.82;59.12;100664.95;107290;1257;67267;-39
2024/01/31 10:28:28;;;;;;;21.20;12.90;;;;;;;3.84;59.05;100662.38;107176;1257;70848;-39
2024/01/31 10:30:57;;;;;;;19.00;13.00;;;;;;;3.86;59.21;100663.33;107278;1258;60327;-39
2024/01/31 10:33:25;;;;;;;20.60;13.70;;;;;;;3.89;59.37;100661.64;107304;1257;60421;-39
2024/01/31 10:35:52;;;;;;;22.30;12.90;;;;;;;3.89;59.48;100659.54;107058;1257;72053;-39
2024/01/31 10:38:23;;;;;;;21.90;12.80;;;;;;;3.92;59.61;100655.49;107253;1260;67619;-39
2024/01/31 10:40:52;;;;;;;21.40;13.00;;;;;;;3.96;59.38;100654.11;107295;1260;72085;-39
2024/01/31 10:43:21;;;;;;;19.30;13.00;;;;;;;4.00;59.41;100650.31;107181;1258;60424;-39
2024/01/31 10:45:48;;;;;;;21.90;13.30;;;;;;;4.05;59.33;100649.35;107359;1257;60951;-39
2024/01/31 10:48:16;;;;;;;21.20;13.80;;;;;;;4.10;58.77;100646.52;107280;1257;73950;-39
2024/01/31 10:50:44;;;;;;;21.20;13.50;;;;;;;4.17;58.84;100643.70;107265;1257;68872;-39
2024/01/31 10:53:12;;;;;;;22.20;14.10;;;;;;;4.27;58.22;100638.11;107285;1260;72769;-39
2024/01/31 10:55:39;;;;;;;21.10;13.80;;;;;;;4.38;57.86;100637.86;107277;1257;60656;-39
2024/01/31 10:58:09;;;;;;;24.10;14.30;;;;;;;4.51;57.40;100637.00;107279;1258;60150;-40
2024/01/31 11:00:37;;;;;;;21.40;13.80;;;;;;;4.62;57.04;100640.84;107123;1258;72714;-39
2024/01/31 11:03:05;;;;;;;19.70;13.30;;;;;;;4.69;56.82;100635.37;107005;1258;68056;-39
2024/01/31 11:05:33;;;;;;;19.80;14.00;;;;;;;4.78;56.22;100627.78;107247;1257;71441;-39
2024/01/31 11:08:01;;;;;;;19.50;12.70;;;;;;;4.92;55.92;100621.56;107229;1256;60425;-39
2024/01/31 11:10:29;;;;;;;22.10;13.00;;;;;;;5.12;55.70;100617.19;107209;1258;60347;-39